Main page
METAR-TAF:

METAR-TAF

Airports :

Amman, Jordan

Amman Civil Airport

latitude: 31-59N, longitude: 035-59E, elevation: 767 m

Current weather observation

The report was made 38 minutes ago, at 20:00 UTC
Wind 4 kt from the North
Temperature 26°C
Humidity 39%
Pressure 1008 hPa
Visibility: 5000 m
haze

METAR: OJAM 202000Z 35004KT 5000 HZ NSC 26/11 Q1008 NOSIG

Time: 23:38 (20:38 UTC)

Forecast

The report was made 3 hours and 8 minutes ago, at 17:30 UTC
Forecast valid from 20 at 18 UTC to 21 at 24 UTC
Wind 12 kt from the West/Northwest
Visibility: 5000 m
haze

TAF: OJAM 201730Z 2018/2124 30012KT 5000 HZ NSC

Weather observations and forecasts of more than 4000 airports (METAR and TAF reports).

The available stations are represented by yellow and red dots on the map.

Hover mouse over dot to see the name of the station.

Then click to see weather observations and forecasts.

To change the map : click on the green buttons with a black cross to zoom in, on the green button with a dash to zoom out, or on the green arrows for adjacent maps.


METAR-TAF: